createdAt,value
2023-09-19T00:02:12.944Z,13.85
2023-09-19T00:05:15.388Z,9.50
2023-09-19T00:08:17.848Z,13.18
2023-09-19T00:11:20.513Z,10.65
2023-09-19T00:14:25.850Z,9.75
2023-09-19T00:17:31.701Z,11.10
2023-09-19T00:20:36.359Z,9.43
2023-09-19T00:23:39.523Z,11.05
2023-09-19T00:26:42.117Z,12.32
2023-09-19T00:29:44.506Z,12.30
2023-09-19T00:32:51.040Z,14.70
2023-09-19T00:35:57.236Z,10.50
2023-09-19T00:39:01.808Z,12.35
2023-09-19T00:42:06.408Z,14.13
2023-09-19T00:45:12.035Z,13.07
2023-09-19T00:48:18.425Z,16.17
2023-09-19T00:51:23.465Z,10.55
2023-09-19T00:54:26.910Z,13.65
2023-09-19T00:57:30.577Z,13.77
2023-09-19T01:00:35.107Z,18.00
2023-09-19T01:03:38.245Z,11.38
2023-09-19T01:06:40.867Z,9.75
2023-09-19T01:09:43.777Z,16.27
2023-09-19T01:12:46.239Z,10.13
2023-09-19T01:16:01.231Z,11.15
2023-09-19T01:19:14.245Z,7.93
2023-09-19T01:22:34.257Z,11.52
2023-09-19T01:25:59.549Z,9.27
2023-09-19T01:29:20.609Z,13.68
2023-09-19T01:32:26.286Z,12.88
2023-09-19T01:35:29.140Z,12.43
2023-09-19T01:38:31.646Z,13.38
2023-09-19T01:41:42.319Z,13.13
2023-09-19T01:44:47.798Z,11.85
2023-09-19T01:47:52.265Z,16.50
2023-09-19T01:51:07.064Z,10.85
2023-09-19T01:54:15.518Z,13.00
2023-09-19T01:57:35.768Z,14.77
2023-09-19T02:00:39.148Z,16.75
2023-09-19T02:03:42.361Z,11.07
2023-09-19T02:06:44.874Z,18.15
2023-09-19T02:09:49.155Z,12.18
2023-09-19T02:12:52.040Z,13.75
2023-09-19T02:15:55.059Z,13.55
2023-09-19T02:18:57.984Z,12.73
2023-09-19T02:22:04.338Z,14.13
2023-09-19T02:25:08.744Z,13.40
2023-09-19T02:28:12.976Z,17.85
2023-09-19T02:31:17.785Z,12.55
2023-09-19T02:34:20.512Z,14.77
2023-09-19T02:37:24.039Z,12.05
2023-09-19T02:40:28.664Z,19.48
2023-09-19T02:43:31.397Z,12.40
2023-09-19T02:46:34.074Z,13.00
2023-09-19T02:49:37.383Z,14.23
2023-09-19T02:52:42.348Z,13.20
2023-09-19T02:55:44.950Z,13.15
2023-09-19T02:58:47.531Z,14.27
2023-09-19T03:01:50.332Z,13.52
2023-09-19T03:04:57.732Z,14.20
2023-09-19T03:08:04.287Z,13.13
2023-09-19T03:11:10.106Z,13.35
2023-09-19T03:14:15.444Z,15.00
2023-09-19T03:20:22.374Z,12.70
2023-09-19T03:23:28.174Z,18.48
2023-09-19T03:26:31.353Z,12.30
2023-09-19T03:29:35.751Z,12.00
2023-09-19T03:32:44.826Z,14.00
2023-09-19T03:35:53.214Z,13.35
2023-09-19T03:38:55.814Z,13.88
2023-09-19T03:41:58.165Z,16.50
2023-09-19T03:45:02.089Z,17.63
2023-09-19T03:48:14.354Z,14.05
2023-09-19T03:51:16.973Z,16.67
2023-09-19T03:54:20.612Z,13.10
2023-09-19T03:57:23.237Z,14.63
2023-09-19T04:03:36.767Z,15.77
2023-09-19T04:06:39.632Z,13.70
2023-09-19T04:09:45.112Z,14.63
2023-09-19T04:12:54.606Z,16.73
2023-09-19T04:15:58.346Z,17.15
2023-09-19T04:19:00.888Z,21.38
2023-09-19T04:22:05.210Z,20.67
2023-09-19T04:25:11.430Z,16.33
2023-09-19T04:28:13.964Z,20.65
2023-09-19T04:31:17.944Z,13.13
2023-09-19T04:34:20.494Z,11.38
2023-09-19T04:37:23.050Z,13.07
2023-09-19T04:40:27.993Z,14.82
2023-09-19T04:43:30.805Z,10.32
2023-09-19T04:46:33.448Z,9.27
2023-09-19T04:49:36.298Z,10.13
2023-09-19T04:52:43.317Z,8.73
2023-09-19T04:55:56.813Z,11.00
2023-09-19T04:58:59.958Z,9.35
2023-09-19T05:02:06.178Z,8.07
2023-09-19T05:05:16.064Z,6.55
2023-09-19T05:08:18.589Z,6.70
2023-09-19T05:11:22.988Z,6.05
2023-09-19T05:14:25.988Z,5.45
2023-09-19T05:17:28.532Z,4.65
2023-09-19T05:20:32.164Z,6.88
2023-09-19T05:23:34.961Z,4.30
2023-09-19T05:26:37.403Z,8.40
2023-09-19T05:29:39.678Z,4.38
2023-09-19T05:32:42.414Z,2.88
2023-09-19T05:35:44.926Z,7.20
2023-09-19T05:38:50.858Z,4.57
2023-09-19T05:41:53.087Z,3.53
2023-09-19T05:44:55.305Z,6.07
2023-09-19T05:48:05.469Z,4.20
2023-09-19T05:51:14.453Z,4.50
2023-09-19T05:54:16.661Z,3.10
2023-09-19T05:57:19.765Z,4.18
2023-09-19T06:00:25.334Z,4.72
2023-09-19T06:03:27.621Z,5.05
2023-09-19T06:06:29.955Z,2.50
2023-09-19T06:09:33.254Z,3.30
2023-09-19T06:12:40.291Z,4.97
2023-09-19T06:15:42.459Z,2.97
2023-09-19T06:22:22.415Z,3.50
2023-09-19T06:25:25.084Z,4.32
2023-09-19T06:28:29.438Z,4.25
2023-09-19T06:31:33.640Z,5.72
2023-09-19T06:34:36.240Z,2.67
2023-09-19T06:37:42.054Z,3.75
2023-09-19T06:40:44.431Z,4.57
2023-09-19T06:43:48.456Z,3.30
2023-09-19T06:46:52.685Z,3.55
2023-09-19T06:49:55.525Z,3.67
2023-09-19T06:52:59.531Z,4.60
2023-09-19T06:56:01.938Z,1.98
2023-09-19T06:59:07.133Z,2.78
2023-09-19T07:02:09.780Z,8.00
2023-09-19T07:05:15.276Z,3.85
2023-09-19T07:08:21.130Z,5.85
2023-09-19T07:11:23.831Z,7.50
2023-09-19T07:14:26.307Z,7.80
2023-09-19T07:17:29.311Z,3.08
2023-09-19T07:20:35.500Z,4.43
2023-09-19T07:23:39.776Z,6.70
2023-09-19T07:26:42.709Z,6.18
2023-09-19T07:29:47.821Z,3.05
2023-09-19T07:32:53.646Z,8.55
2023-09-19T07:36:01.782Z,3.85
2023-09-19T07:42:12.823Z,2.90
2023-09-19T07:45:15.755Z,2.83
2023-09-19T07:48:21.190Z,4.90
2023-09-19T07:51:23.462Z,4.78
2023-09-19T07:57:37.229Z,7.35
2023-09-19T08:00:40.003Z,3.92
2023-09-19T08:03:43.917Z,3.05
2023-09-19T08:06:46.361Z,3.78
2023-09-19T08:09:49.895Z,5.18
2023-09-19T08:12:57.398Z,11.40
2023-09-19T08:16:02.634Z,5.40
2023-09-19T08:19:05.080Z,6.22
2023-09-19T08:22:18.738Z,9.60
2023-09-19T08:25:22.624Z,6.03
2023-09-19T08:28:25.712Z,3.78
2023-09-19T08:31:28.162Z,6.07
2023-09-19T08:34:32.763Z,4.03
2023-09-19T08:37:35.327Z,6.40
2023-09-19T08:40:42.379Z,6.07
2023-09-19T08:43:44.918Z,7.28
2023-09-19T08:46:47.906Z,4.13
2023-09-19T08:49:54.514Z,5.32
2023-09-19T08:52:58.222Z,3.35
2023-09-19T08:56:06.005Z,3.78
2023-09-19T08:59:15.460Z,4.95
2023-09-19T09:02:20.262Z,5.18
2023-09-19T09:05:25.213Z,4.43
2023-09-19T09:08:28.344Z,5.97
2023-09-19T09:11:34.075Z,3.15
2023-09-19T09:14:41.329Z,3.88
2023-09-19T09:17:49.561Z,5.70
2023-09-19T09:20:53.111Z,6.60
2023-09-19T09:23:56.177Z,5.43
2023-09-19T09:26:59.284Z,5.50
2023-09-19T09:30:01.791Z,4.35
2023-09-19T09:33:14.542Z,5.80
2023-09-19T09:36:35.002Z,3.58
2023-09-19T09:39:37.852Z,3.65
2023-09-19T09:42:42.202Z,4.30
2023-09-19T09:49:15.084Z,3.63
2023-09-19T09:52:18.430Z,3.97
2023-09-19T09:55:21.660Z,6.05
2023-09-19T09:58:30.507Z,4.20
2023-09-19T10:01:49.622Z,3.65
2023-09-19T10:04:53.278Z,2.65
2023-09-19T10:08:10.197Z,5.60
2023-09-19T10:11:16.943Z,4.30
2023-09-19T10:14:26.862Z,4.53
2023-09-19T10:17:31.739Z,6.57
2023-09-19T10:20:34.907Z,3.35
2023-09-19T10:23:38.477Z,4.15
2023-09-19T10:26:44.662Z,2.45
2023-09-19T10:29:52.047Z,4.10
2023-09-19T10:33:00.635Z,4.13
2023-09-19T10:36:06.483Z,3.40
2023-09-19T10:39:09.971Z,4.03
2023-09-19T10:42:16.944Z,5.00
2023-09-19T10:45:22.875Z,3.78
2023-09-19T10:48:27.538Z,4.78
2023-09-19T10:51:32.847Z,4.68
2023-09-19T10:54:38.175Z,4.60
2023-09-19T10:57:45.818Z,4.88
2023-09-19T11:00:58.619Z,6.78
2023-09-19T11:04:23.707Z,4.70
2023-09-19T11:07:27.216Z,3.55
2023-09-19T11:10:52.302Z,5.60
2023-09-19T11:14:15.604Z,3.30
2023-09-19T11:17:20.776Z,3.58
2023-09-19T11:20:23.631Z,4.70
2023-09-19T11:23:32.079Z,5.60
2023-09-19T11:26:50.756Z,4.25
2023-09-19T11:30:13.499Z,6.20
2023-09-19T11:36:22.369Z,3.20
2023-09-19T11:39:28.595Z,4.28
2023-09-19T11:42:49.176Z,3.17
2023-09-19T11:45:59.158Z,3.15
2023-09-19T11:49:14.671Z,3.30
2023-09-19T11:52:25.458Z,5.43
2023-09-19T11:55:34.207Z,2.75
2023-09-19T11:58:39.147Z,3.25
2023-09-19T12:01:51.436Z,5.80
2023-09-19T12:04:55.098Z,3.17
2023-09-19T12:07:57.769Z,3.95
2023-09-19T12:11:07.996Z,3.35
2023-09-19T12:14:10.764Z,5.38
2023-09-19T12:17:14.307Z,3.13
2023-09-19T12:20:20.359Z,2.65
2023-09-19T12:23:24.440Z,3.60
2023-09-19T12:26:29.964Z,3.50
2023-09-19T12:29:33.371Z,3.63
2023-09-19T12:32:41.707Z,11.48
2023-09-19T12:35:46.940Z,4.15
2023-09-19T12:38:54.173Z,4.25
2023-09-19T12:42:00.111Z,7.50
2023-09-19T12:45:19.105Z,5.07
2023-09-19T12:48:37.037Z,4.30
2023-09-19T12:51:42.859Z,4.90
2023-09-19T12:54:55.745Z,4.47
2023-09-19T12:58:13.273Z,3.30
2023-09-19T13:01:16.279Z,3.83
2023-09-19T13:04:30.328Z,4.97
2023-09-19T13:07:46.576Z,4.63
2023-09-19T13:11:24.252Z,6.97
2023-09-19T13:14:33.111Z,5.97
2023-09-19T13:17:45.214Z,3.70
2023-09-19T13:21:06.712Z,3.42
2023-09-19T13:24:22.331Z,4.10
2023-09-19T13:27:24.769Z,2.90
2023-09-19T13:30:29.695Z,4.55
2023-09-19T13:33:33.639Z,6.75
2023-09-19T13:36:36.145Z,5.18
2023-09-19T13:39:39.093Z,5.13
2023-09-19T13:42:42.352Z,4.40
2023-09-19T13:45:44.604Z,6.60
2023-09-19T13:48:57.452Z,3.38
2023-09-19T13:52:02.375Z,5.07
2023-09-19T13:55:06.802Z,4.15
2023-09-19T13:58:12.097Z,6.97
2023-09-19T14:01:17.178Z,4.28
2023-09-19T14:04:19.706Z,3.38
2023-09-19T14:10:25.373Z,3.13
2023-09-19T14:13:27.651Z,4.60
2023-09-19T14:16:32.320Z,11.88
2023-09-19T14:19:37.293Z,5.47
2023-09-19T14:22:39.659Z,6.82
2023-09-19T14:25:42.822Z,4.30
2023-09-19T14:28:46.170Z,3.55
2023-09-19T14:31:48.728Z,4.18
2023-09-19T14:34:51.199Z,4.18
2023-09-19T14:37:56.406Z,4.10
2023-09-19T14:41:02.862Z,3.67
2023-09-19T14:44:06.345Z,4.68
2023-09-19T14:47:08.889Z,6.57
2023-09-19T14:50:11.815Z,9.20
2023-09-19T14:53:15.160Z,5.50
2023-09-19T14:56:21.524Z,4.95
2023-09-19T14:59:24.247Z,4.72
2023-09-19T15:02:29.645Z,5.80
2023-09-19T15:05:32.820Z,4.32
2023-09-19T15:08:36.318Z,4.85
2023-09-19T15:14:43.475Z,5.93
2023-09-19T15:17:46.083Z,5.15
2023-09-19T15:20:49.048Z,5.50
2023-09-19T15:23:51.929Z,6.65
2023-09-19T15:26:56.687Z,3.35
2023-09-19T15:30:01.718Z,4.15
2023-09-19T15:33:04.747Z,5.32
2023-09-19T15:36:08.764Z,4.50
2023-09-19T15:39:17.808Z,6.97
2023-09-19T15:42:21.040Z,5.63
2023-09-19T15:45:26.776Z,5.50
2023-09-19T15:48:30.408Z,3.47
2023-09-19T15:54:36.322Z,4.75
2023-09-19T15:57:40.014Z,5.30
2023-09-19T16:00:42.699Z,5.25
2023-09-19T16:03:46.543Z,5.07
2023-09-19T16:06:49.847Z,5.22
2023-09-19T16:09:53.228Z,4.80
2023-09-19T16:12:55.756Z,5.65
2023-09-19T16:15:59.434Z,3.78
2023-09-19T16:19:04.602Z,4.40
2023-09-19T16:22:07.485Z,6.28
2023-09-19T16:25:13.165Z,4.80
2023-09-19T16:28:16.415Z,3.97
2023-09-19T16:31:20.273Z,5.68
2023-09-19T16:34:22.977Z,4.65
2023-09-19T16:37:26.574Z,7.15
2023-09-19T16:40:29.299Z,4.75
2023-09-19T16:43:35.282Z,5.93
2023-09-19T16:46:41.190Z,6.45
2023-09-19T16:49:44.234Z,6.32
2023-09-19T16:52:46.967Z,6.70
2023-09-19T16:55:49.989Z,4.82
2023-09-19T16:58:53.759Z,6.00
2023-09-19T17:01:58.506Z,11.15
2023-09-19T17:05:04.133Z,8.88
2023-09-19T17:08:14.002Z,18.52
2023-09-19T17:11:18.839Z,16.58
2023-09-19T17:14:24.908Z,6.20
2023-09-19T17:17:28.478Z,5.80
2023-09-19T17:20:32.001Z,8.13
2023-09-19T17:23:35.239Z,7.95
2023-09-19T17:26:38.768Z,5.80
2023-09-19T17:29:43.924Z,5.35
2023-09-19T17:32:48.400Z,4.68
2023-09-19T17:36:08.262Z,6.90
2023-09-19T17:39:16.962Z,7.22
2023-09-19T17:42:21.024Z,4.32
2023-09-19T17:45:25.389Z,4.68
2023-09-19T17:48:44.424Z,4.32
2023-09-19T17:51:51.141Z,7.63
2023-09-19T17:54:59.871Z,4.85
2023-09-19T17:58:05.121Z,4.97
2023-09-19T18:01:13.784Z,6.88
2023-09-19T18:04:21.673Z,6.28
2023-09-19T18:07:34.131Z,7.45
2023-09-19T18:10:44.355Z,6.90
2023-09-19T18:13:55.981Z,6.90
2023-09-19T18:17:04.357Z,5.65
2023-09-19T18:20:16.488Z,4.72
2023-09-19T18:23:22.153Z,7.90
2023-09-19T18:26:27.621Z,6.95
2023-09-19T18:29:34.418Z,8.10
2023-09-19T18:32:59.284Z,5.90
2023-09-19T18:36:07.922Z,6.57
2023-09-19T18:39:14.661Z,9.82
2023-09-19T18:42:18.239Z,9.82
2023-09-19T18:45:34.844Z,6.47
2023-09-19T18:48:48.746Z,5.43
2023-09-19T18:51:51.555Z,5.43
2023-09-19T18:54:55.092Z,5.03
2023-09-19T18:58:00.347Z,5.05
2023-09-19T19:01:07.254Z,7.93
2023-09-19T19:04:15.102Z,7.45
2023-09-19T19:07:23.179Z,7.03
2023-09-19T19:10:26.502Z,6.85
2023-09-19T19:13:29.497Z,6.30
2023-09-19T19:16:33.490Z,7.63
2023-09-19T19:19:57.136Z,7.63
2023-09-19T19:23:02.213Z,10.55
2023-09-19T19:26:06.818Z,10.13
2023-09-19T19:32:17.653Z,7.55
2023-09-19T19:35:21.464Z,10.50
2023-09-19T19:38:27.337Z,10.80
2023-09-19T19:41:36.263Z,9.75
2023-09-19T19:44:39.978Z,6.50
2023-09-19T19:47:44.345Z,7.95
2023-09-19T19:50:46.928Z,6.93
2023-09-19T19:53:54.391Z,5.90
2023-09-19T19:56:58.314Z,9.45
2023-09-19T20:00:04.044Z,8.82
2023-09-19T20:03:09.436Z,10.38
2023-09-19T20:06:19.634Z,10.00
2023-09-19T20:09:24.238Z,9.27
2023-09-19T20:12:27.713Z,6.93
2023-09-19T20:15:32.930Z,8.32
2023-09-19T20:18:38.903Z,9.07
2023-09-19T20:21:42.477Z,8.90
2023-09-19T20:24:48.921Z,8.35
2023-09-19T20:27:53.376Z,9.80
2023-09-19T20:30:57.186Z,6.85
2023-09-19T20:34:00.846Z,9.55
2023-09-19T20:37:06.748Z,8.23
2023-09-19T20:40:11.861Z,6.47
2023-09-19T20:43:15.497Z,7.20
2023-09-19T20:46:18.498Z,8.75
2023-09-19T20:49:21.676Z,6.45
2023-09-19T20:52:25.545Z,7.38
2023-09-19T20:55:28.654Z,7.30
2023-09-19T20:58:31.330Z,12.23
2023-09-19T21:01:33.954Z,5.63
2023-09-19T21:04:36.742Z,8.88
2023-09-19T21:07:39.635Z,11.48
2023-09-19T21:10:42.074Z,9.82
2023-09-19T21:13:45.919Z,7.30
2023-09-19T21:16:50.065Z,6.95
2023-09-19T21:22:57.485Z,5.47
2023-09-19T21:26:04.151Z,7.70
2023-09-19T21:29:08.490Z,8.32
2023-09-19T21:32:10.791Z,5.68
2023-09-19T21:35:15.745Z,7.95
2023-09-19T21:38:18.013Z,7.82
2023-09-19T21:41:21.202Z,9.20
2023-09-19T21:44:25.298Z,7.45
2023-09-19T21:47:28.167Z,9.07
2023-09-19T21:50:34.095Z,8.18
2023-09-19T21:53:37.326Z,7.20
2023-09-19T21:56:39.886Z,6.60
2023-09-19T21:59:43.751Z,6.40
2023-09-19T22:02:46.975Z,6.40
2023-09-19T22:05:49.999Z,6.72
2023-09-19T22:08:52.505Z,6.55
2023-09-19T22:11:55.157Z,4.82
2023-09-19T22:14:57.637Z,6.18
2023-09-19T22:18:01.034Z,4.45
2023-09-19T22:21:21.039Z,6.35
2023-09-19T22:24:23.947Z,6.60
2023-09-19T22:27:26.422Z,6.47
2023-09-19T22:30:34.390Z,8.45
2023-09-19T22:33:40.142Z,7.70
2023-09-19T22:36:49.612Z,6.60
2023-09-19T22:39:52.224Z,6.53
2023-09-19T22:42:54.559Z,7.72
2023-09-19T22:45:56.833Z,6.03
2023-09-19T22:48:59.384Z,6.20
2023-09-19T22:52:02.814Z,7.63
2023-09-19T22:55:09.495Z,6.93
2023-09-19T22:58:13.059Z,6.78
2023-09-19T23:01:25.949Z,5.35
2023-09-19T23:04:28.524Z,10.60
2023-09-19T23:07:31.023Z,6.15
2023-09-19T23:10:41.048Z,5.03
2023-09-19T23:13:43.470Z,3.80
2023-09-19T23:16:49.635Z,6.53
2023-09-19T23:19:57.150Z,7.05
2023-09-19T23:23:01.679Z,5.40
2023-09-19T23:26:07.340Z,5.68
2023-09-19T23:29:09.676Z,6.00
2023-09-19T23:32:16.315Z,7.38
2023-09-19T23:35:23.184Z,5.22
2023-09-19T23:38:25.526Z,5.55
2023-09-19T23:41:31.936Z,5.20
2023-09-19T23:44:35.070Z,8.50
2023-09-19T23:47:40.151Z,5.05
2023-09-19T23:50:44.326Z,5.95
2023-09-19T23:53:46.524Z,7.50
2023-09-19T23:56:50.316Z,6.43
2023-09-19T23:59:52.759Z,6.30
